createdAt,value
2022-08-16T00:00:21.945Z,75.62
2022-08-16T00:03:13.260Z,75.87
2022-08-16T00:05:58.938Z,76.41
2022-08-16T00:08:45.693Z,76.22
2022-08-16T00:11:31.245Z,76.24
2022-08-16T00:14:22.469Z,76.48
2022-08-16T00:17:19.419Z,77.02
2022-08-16T00:20:08.989Z,76.85
2022-08-16T00:22:57.906Z,77.10
2022-08-16T00:26:35.815Z,77.16
2022-08-16T00:28:48.821Z,77.54
2022-08-16T00:31:47.181Z,77.57
2022-08-16T00:34:53.032Z,77.13
2022-08-16T00:37:56.381Z,77.76
2022-08-16T00:40:50.575Z,77.36
2022-08-16T00:43:42.981Z,77.91
2022-08-16T00:46:52.886Z,78.11
2022-08-16T00:49:56.270Z,78.33
2022-08-16T00:52:50.666Z,79.11
2022-08-16T00:55:41.223Z,79.13
2022-08-16T00:58:34.926Z,79.21
2022-08-16T01:01:21.216Z,79.34
2022-08-16T01:04:29.626Z,79.29
2022-08-16T01:07:13.173Z,79.94
2022-08-16T01:10:02.731Z,79.89
2022-08-16T01:12:47.964Z,80.17
2022-08-16T01:15:36.081Z,80.60
2022-08-16T01:18:40.456Z,81.19
2022-08-16T01:21:44.931Z,82.00
2022-08-16T01:24:53.912Z,82.09
2022-08-16T01:27:54.390Z,82.55
2022-08-16T01:30:49.885Z,83.13
2022-08-16T01:33:36.125Z,83.22
2022-08-16T01:36:21.847Z,83.33
2022-08-16T01:39:15.724Z,83.78
2022-08-16T01:42:01.890Z,83.80
2022-08-16T01:44:48.991Z,84.28
2022-08-16T01:47:39.520Z,84.54
2022-08-16T01:50:41.867Z,84.73
2022-08-16T01:53:41.320Z,84.95
2022-08-16T01:56:27.596Z,84.96
2022-08-16T01:59:15.481Z,84.98
2022-08-16T02:02:00.958Z,85.63
2022-08-16T02:04:48.893Z,86.06
2022-08-16T02:07:40.152Z,86.05
2022-08-16T02:10:29.228Z,86.68
2022-08-16T02:13:14.505Z,86.84
2022-08-16T02:15:59.859Z,86.43
2022-08-16T02:18:45.343Z,86.60
2022-08-16T02:21:32.198Z,86.60
2022-08-16T02:24:31.912Z,86.70
2022-08-16T02:27:18.412Z,86.81
2022-08-16T02:30:06.807Z,86.66
2022-08-16T02:32:53.554Z,86.75
2022-08-16T02:35:54.016Z,86.69
2022-08-16T02:38:43.572Z,86.78
2022-08-16T02:41:31.677Z,87.00
2022-08-16T02:44:19.829Z,86.74
2022-08-16T02:47:05.178Z,87.12
2022-08-16T02:49:59.070Z,87.27
2022-08-16T02:52:55.800Z,87.61
2022-08-16T02:55:41.627Z,87.46
2022-08-16T02:58:27.128Z,87.86
2022-08-16T03:01:24.617Z,88.00
2022-08-16T03:04:28.718Z,88.14
2022-08-16T03:07:14.863Z,88.09
2022-08-16T03:10:00.402Z,88.15
2022-08-16T03:12:55.896Z,88.13
2022-08-16T03:15:41.578Z,88.48
2022-08-16T03:18:34.732Z,88.65
2022-08-16T03:21:25.617Z,88.83
2022-08-16T03:24:28.690Z,89.38
2022-08-16T03:27:14.558Z,89.23
2022-08-16T03:30:16.518Z,89.32
2022-08-16T03:33:03.552Z,89.60
2022-08-16T03:35:48.552Z,89.71
2022-08-16T03:38:42.449Z,89.96
2022-08-16T03:41:29.494Z,90.35
2022-08-16T03:44:43.242Z,90.28
2022-08-16T03:47:34.200Z,89.96
2022-08-16T03:50:20.340Z,90.27
2022-08-16T03:53:11.801Z,90.40
2022-08-16T03:55:57.234Z,90.61
2022-08-16T03:58:42.466Z,90.77
2022-08-16T04:01:30.001Z,91.05
2022-08-16T04:04:30.921Z,91.40
2022-08-16T04:07:19.001Z,91.61
2022-08-16T04:10:11.448Z,92.12
2022-08-16T04:13:20.719Z,92.00
2022-08-16T04:16:26.451Z,91.40
2022-08-16T04:19:13.602Z,91.42
2022-08-16T04:22:00.844Z,91.98
2022-08-16T04:24:55.355Z,91.91
2022-08-16T04:27:55.751Z,92.32
2022-08-16T04:30:41.579Z,92.95
2022-08-16T04:33:28.792Z,93.60
2022-08-16T04:36:19.916Z,94.00
2022-08-16T04:39:05.541Z,94.20
2022-08-16T04:41:56.927Z,94.50
2022-08-16T04:44:53.434Z,95.00
2022-08-16T04:47:41.808Z,94.73
2022-08-16T04:50:30.510Z,95.07
2022-08-16T04:53:16.574Z,94.91
2022-08-16T04:56:04.853Z,95.20
2022-08-16T04:58:57.713Z,95.77
2022-08-16T05:01:56.071Z,95.91
2022-08-16T05:04:43.868Z,95.98
2022-08-16T05:07:29.466Z,95.88
2022-08-16T05:10:19.869Z,96.16
2022-08-16T05:13:08.563Z,96.12
2022-08-16T05:16:00.828Z,96.84
2022-08-16T05:18:46.823Z,96.84
2022-08-16T05:21:35.683Z,96.76
2022-08-16T05:24:24.750Z,96.80
2022-08-16T05:27:11.210Z,96.87
2022-08-16T05:30:01.955Z,96.58
2022-08-16T05:33:01.882Z,97.17
2022-08-16T05:35:54.584Z,97.51
2022-08-16T05:38:41.024Z,97.54
2022-08-16T05:41:26.271Z,97.55
2022-08-16T05:44:22.563Z,97.67
2022-08-16T05:47:09.851Z,97.77
2022-08-16T05:50:00.816Z,97.79
2022-08-16T05:52:47.539Z,97.16
2022-08-16T05:55:32.817Z,97.40
2022-08-16T05:58:32.932Z,96.85
2022-08-16T06:01:18.688Z,96.60
2022-08-16T06:04:12.888Z,96.88
2022-08-16T06:06:58.269Z,97.26
2022-08-16T06:09:46.895Z,96.99
2022-08-16T06:12:32.585Z,97.04
2022-08-16T06:15:19.888Z,96.61
2022-08-16T06:18:05.186Z,96.59
2022-08-16T06:20:55.103Z,96.33
2022-08-16T06:23:41.490Z,96.50
2022-08-16T06:26:37.035Z,96.27
2022-08-16T06:29:22.944Z,96.42
2022-08-16T06:32:09.126Z,95.85
2022-08-16T06:35:13.610Z,95.98
2022-08-16T06:37:58.962Z,95.55
2022-08-16T06:40:49.093Z,95.91
2022-08-16T06:43:35.033Z,95.64
2022-08-16T06:46:31.832Z,95.64
2022-08-16T06:49:17.874Z,95.44
2022-08-16T06:52:03.425Z,95.50
2022-08-16T06:54:49.985Z,95.63
2022-08-16T06:57:35.245Z,96.19
2022-08-16T07:00:25.480Z,96.70
2022-08-16T07:03:26.404Z,96.47
2022-08-16T07:06:13.301Z,97.05
2022-08-16T07:08:59.954Z,96.56
2022-08-16T07:11:51.528Z,96.30
2022-08-16T07:14:37.053Z,96.54
2022-08-16T07:17:22.981Z,96.57
2022-08-16T07:20:35.188Z,96.65
2022-08-16T07:23:15.649Z,96.41
2022-08-16T07:26:00.825Z,95.80
2022-08-16T07:28:46.175Z,95.97
2022-08-16T07:31:37.910Z,95.36
2022-08-16T07:34:35.784Z,95.61
2022-08-16T07:37:28.389Z,95.08
2022-08-16T07:40:15.049Z,94.68
2022-08-16T07:43:01.011Z,94.75
2022-08-16T07:45:51.271Z,95.20
2022-08-16T07:48:38.255Z,94.56
2022-08-16T07:51:23.530Z,94.37
2022-08-16T07:54:10.930Z,94.47
2022-08-16T07:56:59.682Z,94.33
2022-08-16T07:59:46.651Z,94.51
2022-08-16T08:02:31.778Z,94.44
2022-08-16T08:05:17.386Z,94.80
2022-08-16T08:08:11.821Z,94.91
2022-08-16T08:11:18.333Z,94.95
2022-08-16T08:14:06.818Z,95.41
2022-08-16T08:16:53.453Z,95.53
2022-08-16T08:19:40.335Z,95.73
2022-08-16T08:22:26.261Z,96.20
2022-08-16T08:25:14.134Z,97.36
2022-08-16T08:28:03.429Z,97.96
2022-08-16T08:31:02.651Z,98.96
2022-08-16T08:33:51.477Z,99.47
2022-08-16T08:36:37.230Z,100.00
2022-08-16T08:39:24.062Z,100.00
2022-08-16T08:42:09.522Z,100.00
2022-08-16T08:44:54.853Z,100.00
2022-08-16T08:47:40.593Z,100.00
2022-08-16T08:50:32.012Z,100.00
2022-08-16T08:53:17.561Z,100.00
2022-08-16T08:56:22.591Z,100.00
2022-08-16T08:59:13.672Z,100.00
2022-08-16T09:02:08.781Z,100.00
2022-08-16T09:04:57.238Z,100.00
2022-08-16T09:08:00.286Z,100.00
2022-08-16T09:10:47.107Z,100.00
2022-08-16T09:13:47.113Z,100.00
2022-08-16T09:17:03.429Z,100.00
2022-08-16T09:19:40.896Z,100.00
2022-08-16T09:22:28.191Z,100.00
2022-08-16T09:25:14.605Z,100.00
2022-08-16T09:28:02.721Z,100.00
2022-08-16T09:30:54.989Z,100.00
2022-08-16T09:33:40.660Z,100.00
2022-08-16T09:36:32.123Z,100.00
2022-08-16T09:39:18.307Z,100.00
2022-08-16T09:42:03.795Z,100.00
2022-08-16T09:45:11.179Z,100.00
2022-08-16T09:47:56.617Z,100.00
2022-08-16T09:50:44.288Z,100.00
2022-08-16T09:53:29.775Z,100.00
2022-08-16T09:56:26.414Z,100.00
2022-08-16T09:59:13.163Z,100.00
2022-08-16T10:02:00.856Z,100.00
2022-08-16T10:05:06.328Z,100.00
2022-08-16T10:07:56.663Z,100.00
2022-08-16T10:11:03.069Z,100.00
2022-08-16T10:13:55.807Z,100.00
2022-08-16T10:16:41.001Z,100.00
2022-08-16T10:19:26.713Z,100.00
2022-08-16T10:22:12.961Z,100.00
2022-08-16T10:25:00.015Z,100.00
2022-08-16T10:27:53.302Z,100.00
2022-08-16T10:30:43.191Z,100.00
2022-08-16T10:33:33.311Z,100.00
2022-08-16T10:36:39.317Z,100.00
2022-08-16T10:39:24.141Z,100.00
2022-08-16T10:42:13.173Z,100.00
2022-08-16T10:44:58.609Z,100.00
2022-08-16T10:47:44.154Z,100.00
2022-08-16T10:50:29.766Z,100.00
2022-08-16T10:53:17.664Z,100.00
2022-08-16T10:56:52.140Z,100.00
2022-08-16T10:59:38.849Z,100.00
2022-08-16T11:02:59.577Z,100.00
2022-08-16T11:05:27.251Z,100.00
2022-08-16T11:08:13.180Z,100.00
2022-08-16T11:11:04.909Z,100.00
2022-08-16T11:14:00.281Z,100.00
2022-08-16T11:17:10.563Z,100.00
2022-08-16T11:23:02.308Z,100.00
2022-08-16T11:26:23.344Z,100.00
2022-08-16T11:32:00.324Z,100.00
2022-08-16T11:35:09.973Z,100.00
2022-08-16T11:38:14.760Z,100.00
2022-08-16T11:41:03.416Z,100.00
2022-08-16T11:43:48.522Z,100.00
2022-08-16T11:46:44.300Z,100.00
2022-08-16T11:49:31.214Z,100.00
2022-08-16T11:52:17.801Z,100.00
2022-08-16T11:55:10.731Z,100.00
2022-08-16T11:57:57.371Z,100.00
2022-08-16T12:00:50.782Z,100.00
2022-08-16T12:03:37.314Z,100.00
2022-08-16T12:06:24.929Z,100.00
2022-08-16T12:09:10.814Z,100.00
2022-08-16T12:11:58.459Z,100.00
2022-08-16T12:14:48.337Z,99.72
2022-08-16T12:17:34.709Z,96.82
2022-08-16T12:20:29.647Z,94.90
2022-08-16T12:23:14.839Z,94.42
2022-08-16T12:26:02.247Z,94.26
2022-08-16T12:28:56.470Z,93.06
2022-08-16T12:32:01.187Z,89.25
2022-08-16T12:34:52.522Z,85.27
2022-08-16T12:37:38.957Z,85.59
2022-08-16T12:40:31.614Z,85.64
2022-08-16T12:43:18.404Z,85.00
2022-08-16T12:46:12.631Z,85.82
2022-08-16T12:49:00.769Z,87.12
2022-08-16T12:51:58.599Z,87.41
2022-08-16T12:54:45.257Z,88.21
2022-08-16T12:57:40.905Z,88.11
2022-08-16T13:00:33.168Z,86.07
2022-08-16T13:03:21.567Z,84.25
2022-08-16T13:06:07.325Z,85.32
2022-08-16T13:08:53.996Z,86.47
2022-08-16T13:11:49.078Z,85.87
2022-08-16T13:14:43.040Z,86.82
2022-08-16T13:17:29.892Z,86.63
2022-08-16T13:20:20.985Z,85.27
2022-08-16T13:23:09.093Z,85.52
2022-08-16T13:25:54.918Z,86.52
2022-08-16T13:28:40.222Z,86.22
2022-08-16T13:31:31.689Z,85.47
2022-08-16T13:34:17.836Z,83.86
2022-08-16T13:37:04.160Z,83.55
2022-08-16T13:39:49.459Z,83.53
2022-08-16T13:42:35.121Z,83.26
2022-08-16T13:45:27.391Z,82.53
2022-08-16T13:48:21.828Z,82.12
2022-08-16T13:51:17.153Z,80.79
2022-08-16T13:54:04.067Z,81.00
2022-08-16T13:56:49.813Z,80.35
2022-08-16T13:59:34.669Z,80.08
2022-08-16T14:02:20.744Z,79.88
2022-08-16T14:05:07.146Z,78.53
2022-08-16T14:07:56.520Z,77.95
2022-08-16T14:10:43.541Z,77.95
2022-08-16T14:13:28.598Z,78.59
2022-08-16T14:16:24.086Z,78.33
2022-08-16T14:19:22.478Z,77.80
2022-08-16T14:22:14.404Z,78.51
2022-08-16T14:25:03.228Z,78.08
2022-08-16T14:27:54.332Z,78.07
2022-08-16T14:30:40.647Z,78.12
2022-08-16T14:33:26.423Z,78.92
2022-08-16T14:36:25.053Z,79.86
2022-08-16T14:39:10.596Z,80.75
2022-08-16T14:42:03.695Z,81.35
2022-08-16T14:44:50.372Z,81.70
2022-08-16T14:47:38.223Z,82.08
2022-08-16T14:50:27.237Z,82.67
2022-08-16T14:53:13.186Z,81.03
2022-08-16T14:55:59.101Z,80.13
2022-08-16T14:58:44.273Z,80.65
2022-08-16T15:01:58.987Z,79.83
2022-08-16T15:04:40.493Z,80.12
2022-08-16T15:07:35.350Z,80.71
2022-08-16T15:10:24.488Z,81.69
2022-08-16T15:13:12.230Z,82.17
2022-08-16T15:16:02.267Z,82.49
2022-08-16T15:18:48.835Z,82.17
2022-08-16T15:21:35.318Z,82.56
2022-08-16T15:24:22.439Z,83.35
2022-08-16T15:27:08.403Z,83.86
2022-08-16T15:29:57.211Z,83.44
2022-08-16T15:32:43.090Z,83.63
2022-08-16T15:35:31.607Z,83.17
2022-08-16T15:38:54.863Z,82.79
2022-08-16T15:41:42.634Z,81.73
2022-08-16T15:44:38.924Z,82.72
2022-08-16T15:47:37.642Z,81.87
2022-08-16T15:50:24.513Z,81.96
2022-08-16T15:53:14.859Z,80.98
2022-08-16T15:56:02.040Z,80.74
2022-08-16T15:58:55.638Z,80.13
2022-08-16T16:01:40.926Z,79.68
2022-08-16T16:04:28.562Z,78.99
2022-08-16T16:07:13.838Z,79.32
2022-08-16T16:10:01.876Z,79.22
2022-08-16T16:12:53.285Z,79.68
2022-08-16T16:15:45.612Z,79.53
2022-08-16T16:18:34.310Z,78.79
2022-08-16T16:21:20.570Z,78.69
2022-08-16T16:24:21.492Z,79.00
2022-08-16T16:27:09.555Z,78.81
2022-08-16T16:30:01.582Z,77.32
2022-08-16T16:32:47.310Z,76.79
2022-08-16T16:35:34.841Z,76.99
2022-08-16T16:38:19.981Z,77.01
2022-08-16T16:41:11.133Z,77.14
2022-08-16T16:43:57.540Z,77.46
2022-08-16T16:46:43.945Z,75.49
2022-08-16T16:49:42.373Z,74.92
2022-08-16T16:52:44.228Z,74.83
2022-08-16T16:55:30.543Z,73.49
2022-08-16T16:58:36.735Z,72.54
2022-08-16T17:01:34.862Z,70.88
2022-08-16T17:04:23.942Z,69.69
2022-08-16T17:07:18.101Z,69.34
2022-08-16T17:10:10.241Z,69.90
2022-08-16T17:12:56.694Z,69.51
2022-08-16T17:15:41.980Z,70.19
2022-08-16T17:19:15.174Z,70.54
2022-08-16T17:21:34.334Z,70.93
2022-08-16T17:24:26.272Z,70.71
2022-08-16T17:27:32.396Z,71.59
2022-08-16T17:30:22.117Z,71.64
2022-08-16T17:33:15.990Z,71.56
2022-08-16T17:36:01.978Z,71.46
2022-08-16T17:38:47.518Z,71.43
2022-08-16T17:41:34.793Z,71.10
2022-08-16T17:44:20.555Z,71.81
2022-08-16T17:47:05.561Z,72.13
2022-08-16T17:49:50.861Z,72.47
2022-08-16T17:52:36.035Z,72.01
2022-08-16T17:55:36.858Z,72.65
2022-08-16T17:58:24.102Z,73.00
2022-08-16T18:01:10.395Z,72.84
2022-08-16T18:04:06.404Z,73.54
2022-08-16T18:06:55.038Z,73.45
2022-08-16T18:09:41.953Z,73.54
2022-08-16T18:12:51.182Z,74.10
2022-08-16T18:15:35.278Z,73.87
2022-08-16T18:18:20.700Z,73.88
2022-08-16T18:21:24.148Z,73.89
2022-08-16T18:24:11.041Z,74.20
2022-08-16T18:26:56.124Z,74.79
2022-08-16T18:29:42.749Z,74.14
2022-08-16T18:32:28.281Z,73.90
2022-08-16T18:35:15.433Z,74.19
2022-08-16T18:38:00.412Z,74.76
2022-08-16T18:40:46.110Z,75.04
2022-08-16T18:43:55.502Z,75.23
2022-08-16T18:46:39.818Z,75.64
2022-08-16T18:49:25.191Z,75.52
2022-08-16T18:52:14.736Z,75.21
2022-08-16T18:55:14.856Z,75.36
2022-08-16T18:58:01.158Z,75.84
2022-08-16T19:00:56.357Z,76.31
2022-08-16T19:03:42.168Z,76.13
2022-08-16T19:06:27.502Z,76.36
2022-08-16T19:09:12.748Z,76.15
2022-08-16T19:11:57.992Z,76.75
2022-08-16T19:14:45.301Z,77.23
2022-08-16T19:17:30.514Z,78.42
2022-08-16T19:20:18.482Z,79.46
2022-08-16T19:23:05.043Z,80.58
2022-08-16T19:26:05.586Z,81.40
2022-08-16T19:28:59.017Z,82.45
2022-08-16T19:31:45.350Z,83.26
2022-08-16T19:34:30.837Z,83.92
2022-08-16T19:37:15.810Z,83.51
2022-08-16T19:40:01.501Z,83.40
2022-08-16T19:42:48.408Z,83.46
2022-08-16T19:45:33.520Z,83.67
2022-08-16T19:48:18.693Z,83.58
2022-08-16T19:51:03.949Z,83.60
2022-08-16T19:53:49.309Z,84.06
2022-08-16T19:56:34.449Z,86.20
2022-08-16T19:59:39.523Z,87.46
2022-08-16T20:02:36.688Z,88.54
2022-08-16T20:05:28.179Z,89.21
2022-08-16T20:08:13.590Z,90.00
2022-08-16T20:10:58.726Z,90.89
2022-08-16T20:13:43.962Z,91.30
2022-08-16T20:16:29.717Z,91.23
2022-08-16T20:19:14.689Z,91.59
2022-08-16T20:22:02.564Z,92.67
2022-08-16T20:24:49.418Z,93.32
2022-08-16T20:27:35.276Z,93.93
2022-08-16T20:30:20.639Z,94.46
2022-08-16T20:33:14.056Z,94.75
2022-08-16T20:35:59.025Z,95.06
2022-08-16T20:38:46.993Z,94.76
2022-08-16T20:41:32.574Z,94.86
2022-08-16T20:44:17.979Z,95.31
2022-08-16T20:47:09.673Z,95.49
2022-08-16T20:49:54.887Z,95.52
2022-08-16T20:52:40.108Z,95.82
2022-08-16T20:55:26.315Z,95.51
2022-08-16T20:58:13.923Z,95.21
2022-08-16T21:00:59.885Z,95.32
2022-08-16T21:03:44.970Z,95.35
2022-08-16T21:06:30.330Z,96.06
2022-08-16T21:09:15.678Z,96.79
2022-08-16T21:12:04.664Z,96.96
2022-08-16T21:14:51.693Z,97.71
2022-08-16T21:17:36.548Z,98.20
2022-08-16T21:20:23.489Z,98.42
2022-08-16T21:23:10.941Z,98.73
2022-08-16T21:25:59.251Z,98.90
2022-08-16T21:28:45.542Z,99.41
2022-08-16T21:31:31.006Z,100.00
2022-08-16T21:34:16.298Z,100.00
2022-08-16T21:37:01.382Z,100.00
2022-08-16T21:39:46.697Z,100.00
2022-08-16T21:42:36.116Z,100.00
2022-08-16T21:45:21.291Z,100.00
2022-08-16T21:48:07.875Z,100.00
2022-08-16T21:50:52.944Z,100.00
2022-08-16T21:53:38.965Z,100.00
2022-08-16T21:56:24.259Z,100.00
2022-08-16T21:59:11.007Z,100.00
2022-08-16T22:01:56.344Z,100.00
2022-08-16T22:04:41.494Z,100.00
2022-08-16T22:07:26.765Z,100.00
2022-08-16T22:11:05.113Z,100.00
2022-08-16T22:13:23.307Z,99.80
2022-08-16T22:16:08.683Z,99.19
2022-08-16T22:18:53.826Z,98.47
2022-08-16T22:21:39.084Z,98.19
2022-08-16T22:24:24.257Z,98.46
2022-08-16T22:27:09.402Z,98.76
2022-08-16T22:29:58.381Z,99.99
2022-08-16T22:32:44.473Z,100.00
2022-08-16T22:35:29.457Z,100.00
2022-08-16T22:38:53.886Z,100.00
2022-08-16T22:41:21.819Z,100.00
2022-08-16T22:44:07.531Z,100.00
2022-08-16T22:46:52.638Z,100.00
2022-08-16T22:49:37.790Z,100.00
2022-08-16T22:52:48.919Z,100.00
2022-08-16T22:55:29.013Z,100.00
2022-08-16T22:58:13.994Z,100.00
2022-08-16T23:00:59.161Z,100.00
2022-08-16T23:03:44.438Z,100.00
2022-08-16T23:06:30.853Z,100.00
2022-08-16T23:09:15.743Z,100.00
2022-08-16T23:12:03.800Z,100.00
2022-08-16T23:14:49.008Z,100.00
2022-08-16T23:17:40.115Z,100.00
2022-08-16T23:20:28.418Z,100.00
2022-08-16T23:23:19.344Z,100.00
2022-08-16T23:26:46.782Z,100.00
2022-08-16T23:29:15.934Z,100.00
2022-08-16T23:32:11.806Z,100.00
2022-08-16T23:34:56.725Z,100.00
2022-08-16T23:37:43.865Z,100.00
2022-08-16T23:40:30.399Z,100.00
2022-08-16T23:43:22.231Z,100.00
2022-08-16T23:46:08.641Z,100.00
2022-08-16T23:49:56.344Z,100.00
2022-08-16T23:52:07.537Z,100.00
2022-08-16T23:54:52.902Z,100.00
2022-08-16T23:57:38.113Z,100.00
